James Clark Ross — ZDLP — position and weather

sailwx.info

Track history (hours):
 
Tides and Currents Weather Stations Pressure Air Temp Water Temp Dewpoint Dewpoint Depression Visibility Wind Speed Wind Dir Waves Ship Positions

Oceanographic research ship James Clark Ross (UK)

Detailed information on ship capabilities available from University of Delaware's Ocean Information Center and ARCUS's ALIAS (Arctic Logistics Information and Support) project.

Last reported at 2015-Mar-06 22:00 UTC. Time now 2015-Mar-07 00:15 UTC.
Position S 53°12' W 070°54'.

Length 99 m; beam 18.8 m; draft 6.3 m.

Type: Ship. MMSI: 740339000.

AWS

Barometer 996.5 mb
Air temperature 17.3 ° C
Dewpoint 3.3 ° C

Date/timePositionNaut miles runAvg speedWind from/ knotsBaromVisibWave heightAir tempDewpointWater temp
2015-Mar-06 22:00S 53°12' W 070°54'0 0.0 996.5 17.3 3.3
2015-Mar-06 20:00S 53°12' W 070°54'0 0.0 998.0 16.8 4.4
2015-Mar-06 17:00S 53°12' W 070°54'0 0.0 999.7 13.4 5.6
2015-Mar-06 16:00S 53°12' W 070°54'0 0.0 1000.1 12.4 6.8
2015-Mar-06 13:00S 53°12' W 070°54'   1000.4 9.5 5.7
2015-Mar-04 01:00S 53°12' W 067°18'2311.5 991.3 13.2 7.4
2015-Mar-03 23:00S 53°30' W 066°54'3511.5 989.9 12.5 7.9
2015-Mar-03 20:00S 53°54' W 066°12'37 9.2 987.9 11.9 7.8
2015-Mar-03 16:00S 54°18' W 065°24'2311.4 986.3 10.4 7.3
2015-Mar-03 14:00S 54°36' W 065°00'7 6.9 986.3 8.6 6.6
2015-Mar-03 13:00S 54°42' W 064°54'3110.3 986.6 7.8 4.4
2015-Mar-03 10:00S 55°12' W 065°06'1212.0 986.6 6.5 2.3
2015-Mar-03 09:00S 55°24' W 065°06'18 9.2 986.8 6.9 2.2
2015-Mar-03 07:00S 55°42' W 065°12'1212.5 985.5 6.3 0.7
2015-Mar-03 06:00S 55°54' W 065°18'6 6.0 250 / 20984.910.8 5.6 2.1 6.9
2015-Mar-03 05:00S 56°00' W 065°18'1212.5 984.8 3.6 1.7
2015-Mar-03 04:00S 56°12' W 065°24'1212.5 984.2 5.2 2.0
2015-Mar-03 03:00S 56°24' W 065°30'18 9.2 984.1 5.3 2.4
2015-Mar-03 01:00S 56°42' W 065°36'1212.4 982.9 6.0 1.9
2015-Mar-03 00:00S 56°54' W 065°42'2412.1 982.6 5.8 2.7
2015-Mar-02 22:00S 57°18' W 065°48'2512.4 982.6 4.8 3.8
2015-Mar-02 20:00S 57°42' W 066°00'1212.0 982.5 6.2 2.8
2015-Mar-02 19:00S 57°54' W 066°00'1212.4 981.9 6.0 3.0
2015-Mar-02 18:00S 58°06' W 066°06'1212.4 340 / 22982.310.8 4.5 6.4 3.0 5.7
2015-Mar-02 17:00S 58°18' W 066°12'18 9.1 982.2 6.4 2.5
2015-Mar-02 15:00S 58°36' W 066°18'1212.4 981.5 5.6 2.3
2015-Mar-02 14:00S 58°48' W 066°24'1212.4 980.6 4.8 1.3
2015-Mar-02 13:00S 59°00' W 066°30'7 6.7 980.0 5.1 1.8
2015-Mar-02 12:00S 59°06' W 066°24'1212.4 979.8 5.4 1.5 6.0 3.1 4.8
2015-Mar-02 11:00S 59°18' W 066°30'1212.0 978.6 4.9 2.3
2015-Mar-02 10:00S 59°30' W 066°30'1212.4 977.8 4.4 2.2
2015-Mar-02 09:00S 59°42' W 066°36'18 9.1 977.5 4.6 2.2
2015-Mar-02 07:00S 60°00' W 066°42'18 9.1 976.9 4.2 2.2
2015-Mar-02 05:00S 60°18' W 066°48'6 6.0 976.4 4.2 0.7
2015-Mar-02 04:00S 60°24' W 066°48'3110.2 975.8 4.3 1.1
2015-Mar-02 01:00S 60°54' W 067°00'1212.3 977.1 3.6 3.2
2015-Mar-02 00:00S 61°06' W 067°06'2412.1 978.7 2.8 2.4
2015-Mar-01 22:00S 61°30' W 067°12'7 6.6 981.7 2.9 2.6
2015-Mar-01 21:00S 61°36' W 067°18'4912.2 982.8 2.9 2.6
2015-Mar-01 17:00S 62°24' W 067°36'1212.0 986.5 2.0 1.6
2015-Mar-01 16:00S 62°36' W 067°36'7 6.6 987.7 1.8 1.4
2015-Mar-01 15:00S 62°42' W 067°42'1212.3 988.4 1.2 0.7
2015-Mar-01 14:00S 62°54' W 067°48'1212.3 989.1 1.3 0.8
2015-Mar-01 13:00S 63°06' W 067°54'3612.1 989.6 0.7 0.2
2015-Mar-01 10:00S 63°42' W 068°06'1313.1 989.9 1.1 0.5
2015-Mar-01 09:00S 63°54' W 068°18'1212.3 989.9 1.1 0.5
2015-Mar-01 08:00S 64°06' W 068°24'1212.3 989.6 1.1 0.5
2015-Mar-01 07:00S 64°18' W 068°30'1212.0 989.1 0.9 0.2
2015-Mar-01 06:00S 64°30' W 068°30'2512.3 320 / 6988.610.8 1.0 0.3 1.3
2015-Mar-01 04:00S 64°54' W 068°42'1212.3 987.4 0.9 0.1
2015-Mar-01 03:00S 65°06' W 068°48'1212.3 986.7 0.7-0.1
2015-Mar-01 02:00S 65°18' W 068°54'1212.3 985.6 0.7-0.3
2015-Mar-01 01:00S 65°30' W 069°00'1212.3 984.5 0.7-0.5
2015-Mar-01 00:00S 65°42' W 069°06'19 9.3 982.9 0.5-0.5
2015-Feb-28 22:00S 66°00' W 069°18'1212.2 980.0 0.3-0.3
2015-Feb-28 21:00S 66°12' W 069°24'18 9.1 978.7 0.3-0.4
2015-Feb-28 19:00S 66°30' W 069°30'1212.2 978.2 0.2-0.8
2015-Feb-28 18:00S 66°42' W 069°36'6 6.0 978.2 0.1-1.1
2015-Feb-28 17:00S 66°48' W 069°36'1212.0 978.4 -0.2-1.0
2015-Feb-28 16:00S 67°00' W 069°36'18 9.1 978.1 -0.2-1.0
2015-Feb-28 14:00S 67°18' W 069°42'6 6.4 978.0 -0.1-2.2
2015-Feb-28 13:00S 67°24' W 069°48'1212.2 977.9 -2.7
2015-Feb-28 12:00S 67°36' W 069°54'6 6.0 977.4 -2.7
2015-Feb-28 11:00S 67°42' W 069°54'2311.7 978.3 0.5-3.2
2015-Feb-28 09:00S 67°48' W 068°54'9 9.1 979.3 0.5-3.3
2015-Feb-28 08:00S 67°48' W 068°30'0 0.0 978.6 -0.1-3.6
2015-Feb-28 07:00S 67°48' W 068°30'0 0.0 978.6 0.3-3.9
2015-Feb-28 06:00S 67°48' W 068°30'0 0.0 978.1 -0.2-3.6
2015-Feb-28 05:00S 67°48' W 068°30'9 2.3 978.4 0.4-4.0
2015-Feb-28 01:00S 67°42' W 068°12'6 6.4 978.6 -0.4-3.7
2015-Feb-28 00:00S 67°36' W 068°06'0 0.0 210 / 19979.1 5.4 1.5-0.0-0.3 1.1
2015-Feb-27 20:00S 67°36' W 068°06'0 0.0 981.1 -1.6-1.3
2015-Feb-27 18:00S 67°36' W 068°06'0 0.0 981.9 -0.5-5.4
2015-Feb-27 16:00S 67°36' W 068°06'0 0.0 983.4 -0.6-6.4
2015-Feb-27 15:00S 67°36' W 068°06'0 0.0 985.0 -0.2-9.4
2015-Feb-27 14:00S 67°36' W 068°06'2 2.3 985.7 -0.9-7.3
2015-Feb-27 13:00S 67°36' W 068°12'9 9.1 987.1 -1.5-5.4
2015-Feb-27 12:00S 67°42' W 068°30'1110.9 987.4 -2.2-5.5
2015-Feb-27 11:00S 67°48' W 068°54'2110.7 986.8 -2.2-3.4
2015-Feb-27 09:00S 67°30' W 069°24'1212.2 990.2 -3.2-4.9
2015-Feb-27 08:00S 67°18' W 069°30'2412.0 990.6 -2.2-3.0
2015-Feb-27 06:00S 66°54' W 069°30'1212.2 992.7 -2.0-3.5
2015-Feb-27 05:00S 66°42' W 069°24'1212.0 992.7 -2.0-2.2
2015-Feb-27 04:00S 66°30' W 069°24'78 8.7 992.7 -2.1-3.7
2015-Feb-26 19:00S 65°12' W 069°06'18 6.1 992.0 -0.3-3.6
2015-Feb-26 16:00S 64°54' W 069°00'0 0.0 991.8 1.0-3.7
2015-Feb-26 15:00S 64°54' W 069°00'0 0.0 991.4 0.6-4.2
2015-Feb-26 13:00S 64°54' W 069°00'0 0.0 990.3 0.2-4.9
2015-Feb-26 12:00S 64°54' W 069°00'8 7.9 989.6 0.4-4.0
2015-Feb-26 11:00S 65°00' W 069°12'8 7.6 989.2 1.4-2.7
2015-Feb-26 10:00S 65°00' W 069°30'2713.5 987.8 0.7-1.7
2015-Feb-26 08:00S 65°18' W 070°18'2110.6 985.9 1.0-0.2
2015-Feb-26 06:00S 65°30' W 071°00'1615.6 984.0 0.8-0.4
2015-Feb-26 05:00S 65°42' W 071°24'1211.5 983.2 0.3-1.0
2015-Feb-26 04:00S 65°48' W 071°48'1211.5 982.3 0.5-1.2
2015-Feb-26 03:00S 65°54' W 072°12'7 7.3 981.8 1.7 0.2
2015-Feb-26 02:00S 65°54' W 072°30'0 0.0 981.1 1.3 0.3
2015-Feb-26 01:00S 65°54' W 072°30'0 0.0 980.8 1.1 0.6
2015-Feb-26 00:00S 65°54' W 072°30'0 0.0 980.6 1.1 0.3
2015-Feb-25 23:00S 65°54' W 072°30'0 0.0 980.2 1.1 0.3
2015-Feb-25 22:00S 65°54' W 072°30'0 0.0 980.2 1.2 0.4
2015-Feb-25 20:00S 65°54' W 072°30'8 7.7 979.5 1.3 0.8
2015-Feb-25 19:00S 66°00' W 072°42'1111.4 979.4 1.3 0.8
2015-Feb-25 18:00S 66°06' W 073°06'1414.0 979.3 1.3 0.8
2015-Feb-25 17:00S 66°18' W 073°24'9 9.4 978.8 1.4 0.9
2015-Feb-25 16:00S 66°24' W 073°42'0 0.0 978.6 1.7 1.0
2015-Feb-25 13:00S 66°24' W 073°42'0 0.0 979.4 1.5 1.1
2015-Feb-25 12:00S 66°24' W 073°42'0 0.0 979.7 1.5 1.1
2015-Feb-25 10:00S 66°24' W 073°42'0 0.0 980.4 1.6 1.2
2015-Feb-25 09:00S 66°24' W 073°42'9 4.7 981.2 1.5 1.1
2015-Feb-25 07:00S 66°18' W 074°00'6 3.2 983.2 1.1 0.4
2015-Feb-25 05:00S 66°24' W 073°54'10 4.8 986.5 0.8-0.1
2015-Feb-25 03:00S 66°24' W 073°30'6 6.5 989.6 0.7-0.5
2015-Feb-25 02:00S 66°18' W 073°24'5 4.8 990.7 1.0-1.9
2015-Feb-25 01:00S 66°18' W 073°12'8 7.7 991.5 0.9-1.4
2015-Feb-25 00:00S 66°24' W 073°00'6 6.5 991.9 1.1-2.1
2015-Feb-24 23:00S 66°18' W 072°54'5 4.8 992.3 1.0-1.9
2015-Feb-24 22:00S 66°18' W 072°42'   992.5 0.9-1.9
Track history (hours):
 
Tides and Currents Weather Stations Pressure Air Temp Water Temp Dewpoint Dewpoint Depression Visibility Wind Speed Wind Dir Waves Ship Positions

Oceanographic research ship James Clark Ross (UK)

Detailed information on ship capabilities available from University of Delaware's Ocean Information Center and ARCUS's ALIAS (Arctic Logistics Information and Support) project.

Last reported at 2015-Mar-06 22:00 UTC. Time now 2015-Mar-07 00:15 UTC.
Position S 53°12' W 070°54'.

Length 99 m; beam 18.8 m; draft 6.3 m.

Type: Ship. MMSI: 740339000.

AWS

Barometer 996.5 mb
Air temperature 17.3 ° C
Dewpoint 3.3 ° C

Date/timePositionNaut miles runAvg speedWind from/ knotsBaromVisibWave heightAir tempDewpointWater temp
2015-Mar-06 22:00S 53°12' W 070°54'0 0.0 996.5 17.3 3.3
2015-Mar-06 20:00S 53°12' W 070°54'0 0.0 998.0 16.8 4.4
2015-Mar-06 17:00S 53°12' W 070°54'0 0.0 999.7 13.4 5.6
2015-Mar-06 16:00S 53°12' W 070°54'0 0.0 1000.1 12.4 6.8
2015-Mar-06 13:00S 53°12' W 070°54'   1000.4 9.5 5.7
2015-Mar-04 01:00S 53°12' W 067°18'2311.5 991.3 13.2 7.4
2015-Mar-03 23:00S 53°30' W 066°54'3511.5 989.9 12.5 7.9
2015-Mar-03 20:00S 53°54' W 066°12'37 9.2 987.9 11.9 7.8
2015-Mar-03 16:00S 54°18' W 065°24'2311.4 986.3 10.4 7.3
2015-Mar-03 14:00S 54°36' W 065°00'7 6.9 986.3 8.6 6.6
2015-Mar-03 13:00S 54°42' W 064°54'3110.3 986.6 7.8 4.4
2015-Mar-03 10:00S 55°12' W 065°06'1212.0 986.6 6.5 2.3
2015-Mar-03 09:00S 55°24' W 065°06'18 9.2 986.8 6.9 2.2
2015-Mar-03 07:00S 55°42' W 065°12'1212.5 985.5 6.3 0.7
2015-Mar-03 06:00S 55°54' W 065°18'6 6.0 250 / 20984.910.8 5.6 2.1 6.9
2015-Mar-03 05:00S 56°00' W 065°18'1212.5 984.8 3.6 1.7
2015-Mar-03 04:00S 56°12' W 065°24'1212.5 984.2 5.2 2.0
2015-Mar-03 03:00S 56°24' W 065°30'18 9.2 984.1 5.3 2.4
2015-Mar-03 01:00S 56°42' W 065°36'1212.4 982.9 6.0 1.9
2015-Mar-03 00:00S 56°54' W 065°42'2412.1 982.6 5.8 2.7
2015-Mar-02 22:00S 57°18' W 065°48'2512.4 982.6 4.8 3.8
2015-Mar-02 20:00S 57°42' W 066°00'1212.0 982.5 6.2 2.8
2015-Mar-02 19:00S 57°54' W 066°00'1212.4 981.9 6.0 3.0
2015-Mar-02 18:00S 58°06' W 066°06'1212.4 340 / 22982.310.8 4.5 6.4 3.0 5.7
2015-Mar-02 17:00S 58°18' W 066°12'18 9.1 982.2 6.4 2.5
2015-Mar-02 15:00S 58°36' W 066°18'1212.4 981.5 5.6 2.3
2015-Mar-02 14:00S 58°48' W 066°24'1212.4 980.6 4.8 1.3
2015-Mar-02 13:00S 59°00' W 066°30'7 6.7 980.0 5.1 1.8
2015-Mar-02 12:00S 59°06' W 066°24'1212.4 979.8 5.4 1.5 6.0 3.1 4.8
2015-Mar-02 11:00S 59°18' W 066°30'1212.0 978.6 4.9 2.3
2015-Mar-02 10:00S 59°30' W 066°30'1212.4 977.8 4.4 2.2
2015-Mar-02 09:00S 59°42' W 066°36'18 9.1 977.5 4.6 2.2
2015-Mar-02 07:00S 60°00' W 066°42'18 9.1 976.9 4.2 2.2
2015-Mar-02 05:00S 60°18' W 066°48'6 6.0 976.4 4.2 0.7
2015-Mar-02 04:00S 60°24' W 066°48'3110.2 975.8 4.3 1.1
2015-Mar-02 01:00S 60°54' W 067°00'1212.3 977.1 3.6 3.2
2015-Mar-02 00:00S 61°06' W 067°06'2412.1 978.7 2.8 2.4
2015-Mar-01 22:00S 61°30' W 067°12'7 6.6 981.7 2.9 2.6
2015-Mar-01 21:00S 61°36' W 067°18'4912.2 982.8 2.9 2.6
2015-Mar-01 17:00S 62°24' W 067°36'1212.0 986.5 2.0 1.6
2015-Mar-01 16:00S 62°36' W 067°36'7 6.6 987.7 1.8 1.4
2015-Mar-01 15:00S 62°42' W 067°42'1212.3 988.4 1.2 0.7
2015-Mar-01 14:00S 62°54' W 067°48'1212.3 989.1 1.3 0.8
2015-Mar-01 13:00S 63°06' W 067°54'3612.1 989.6 0.7 0.2
2015-Mar-01 10:00S 63°42' W 068°06'1313.1 989.9 1.1 0.5
2015-Mar-01 09:00S 63°54' W 068°18'1212.3 989.9 1.1 0.5
2015-Mar-01 08:00S 64°06' W 068°24'1212.3 989.6 1.1 0.5
2015-Mar-01 07:00S 64°18' W 068°30'1212.0 989.1 0.9 0.2
2015-Mar-01 06:00S 64°30' W 068°30'2512.3 320 / 6988.610.8 1.0 0.3 1.3
2015-Mar-01 04:00S 64°54' W 068°42'1212.3 987.4 0.9 0.1
2015-Mar-01 03:00S 65°06' W 068°48'1212.3 986.7 0.7-0.1
2015-Mar-01 02:00S 65°18' W 068°54'1212.3 985.6 0.7-0.3
2015-Mar-01 01:00S 65°30' W 069°00'1212.3 984.5 0.7-0.5
2015-Mar-01 00:00S 65°42' W 069°06'19 9.3 982.9 0.5-0.5
2015-Feb-28 22:00S 66°00' W 069°18'1212.2 980.0 0.3-0.3
2015-Feb-28 21:00S 66°12' W 069°24'18 9.1 978.7 0.3-0.4
2015-Feb-28 19:00S 66°30' W 069°30'1212.2 978.2 0.2-0.8
2015-Feb-28 18:00S 66°42' W 069°36'6 6.0 978.2 0.1-1.1
2015-Feb-28 17:00S 66°48' W 069°36'1212.0 978.4 -0.2-1.0
2015-Feb-28 16:00S 67°00' W 069°36'18 9.1 978.1 -0.2-1.0
2015-Feb-28 14:00S 67°18' W 069°42'6 6.4 978.0 -0.1-2.2
2015-Feb-28 13:00S 67°24' W 069°48'1212.2 977.9 -2.7
2015-Feb-28 12:00S 67°36' W 069°54'6 6.0 977.4 -2.7
2015-Feb-28 11:00S 67°42' W 069°54'2311.7 978.3 0.5-3.2
2015-Feb-28 09:00S 67°48' W 068°54'9 9.1 979.3 0.5-3.3
2015-Feb-28 08:00S 67°48' W 068°30'0 0.0 978.6 -0.1-3.6
2015-Feb-28 07:00S 67°48' W 068°30'0 0.0 978.6 0.3-3.9
2015-Feb-28 06:00S 67°48' W 068°30'0 0.0 978.1 -0.2-3.6
2015-Feb-28 05:00S 67°48' W 068°30'9 2.3 978.4 0.4-4.0
2015-Feb-28 01:00S 67°42' W 068°12'6 6.4 978.6 -0.4-3.7
2015-Feb-28 00:00S 67°36' W 068°06'0 0.0 210 / 19979.1 5.4 1.5-0.0-0.3 1.1
2015-Feb-27 20:00S 67°36' W 068°06'0 0.0 981.1 -1.6-1.3
2015-Feb-27 18:00S 67°36' W 068°06'0 0.0 981.9 -0.5-5.4
2015-Feb-27 16:00S 67°36' W 068°06'0 0.0 983.4 -0.6-6.4
2015-Feb-27 15:00S 67°36' W 068°06'0 0.0 985.0 -0.2-9.4
2015-Feb-27 14:00S 67°36' W 068°06'2 2.3 985.7 -0.9-7.3
2015-Feb-27 13:00S 67°36' W 068°12'9 9.1 987.1 -1.5-5.4
2015-Feb-27 12:00S 67°42' W 068°30'1110.9 987.4 -2.2-5.5
2015-Feb-27 11:00S 67°48' W 068°54'2110.7 986.8 -2.2-3.4
2015-Feb-27 09:00S 67°30' W 069°24'1212.2 990.2 -3.2-4.9
2015-Feb-27 08:00S 67°18' W 069°30'2412.0 990.6 -2.2-3.0
2015-Feb-27 06:00S 66°54' W 069°30'1212.2 992.7 -2.0-3.5
2015-Feb-27 05:00S 66°42' W 069°24'1212.0 992.7 -2.0-2.2
2015-Feb-27 04:00S 66°30' W 069°24'78 8.7 992.7 -2.1-3.7
2015-Feb-26 19:00S 65°12' W 069°06'18 6.1 992.0 -0.3-3.6
2015-Feb-26 16:00S 64°54' W 069°00'0 0.0 991.8 1.0-3.7
2015-Feb-26 15:00S 64°54' W 069°00'0 0.0 991.4 0.6-4.2
2015-Feb-26 13:00S 64°54' W 069°00'0 0.0 990.3 0.2-4.9
2015-Feb-26 12:00S 64°54' W 069°00'8 7.9 989.6 0.4-4.0
2015-Feb-26 11:00S 65°00' W 069°12'8 7.6 989.2 1.4-2.7
2015-Feb-26 10:00S 65°00' W 069°30'2713.5 987.8 0.7-1.7
2015-Feb-26 08:00S 65°18' W 070°18'2110.6 985.9 1.0-0.2
2015-Feb-26 06:00S 65°30' W 071°00'1615.6 984.0 0.8-0.4
2015-Feb-26 05:00S 65°42' W 071°24'1211.5 983.2 0.3-1.0
2015-Feb-26 04:00S 65°48' W 071°48'1211.5 982.3 0.5-1.2
2015-Feb-26 03:00S 65°54' W 072°12'7 7.3 981.8 1.7 0.2
2015-Feb-26 02:00S 65°54' W 072°30'0 0.0 981.1 1.3 0.3
2015-Feb-26 01:00S 65°54' W 072°30'0 0.0 980.8 1.1 0.6
2015-Feb-26 00:00S 65°54' W 072°30'0 0.0 980.6 1.1 0.3
2015-Feb-25 23:00S 65°54' W 072°30'0 0.0 980.2 1.1 0.3
2015-Feb-25 22:00S 65°54' W 072°30'0 0.0 980.2 1.2 0.4
2015-Feb-25 20:00S 65°54' W 072°30'8 7.7 979.5 1.3 0.8
2015-Feb-25 19:00S 66°00' W 072°42'1111.4 979.4 1.3 0.8
2015-Feb-25 18:00S 66°06' W 073°06'1414.0 979.3 1.3 0.8
2015-Feb-25 17:00S 66°18' W 073°24'9 9.4 978.8 1.4 0.9
2015-Feb-25 16:00S 66°24' W 073°42'0 0.0 978.6 1.7 1.0
2015-Feb-25 13:00S 66°24' W 073°42'0 0.0 979.4 1.5 1.1
2015-Feb-25 12:00S 66°24' W 073°42'0 0.0 979.7 1.5 1.1
2015-Feb-25 10:00S 66°24' W 073°42'0 0.0 980.4 1.6 1.2
2015-Feb-25 09:00S 66°24' W 073°42'9 4.7 981.2 1.5 1.1
2015-Feb-25 07:00S 66°18' W 074°00'6 3.2 983.2 1.1 0.4
2015-Feb-25 05:00S 66°24' W 073°54'10 4.8 986.5 0.8-0.1
2015-Feb-25 03:00S 66°24' W 073°30'6 6.5 989.6 0.7-0.5
2015-Feb-25 02:00S 66°18' W 073°24'5 4.8 990.7 1.0-1.9
2015-Feb-25 01:00S 66°18' W 073°12'8 7.7 991.5 0.9-1.4
2015-Feb-25 00:00S 66°24' W 073°00'6 6.5 991.9 1.1-2.1
2015-Feb-24 23:00S 66°18' W 072°54'5 4.8 992.3 1.0-1.9
2015-Feb-24 22:00S 66°18' W 072°42'   992.5 0.9-1.9

Dump ship's entire track history